Terminal Aerodrome Forecast
Issued by NWS

Home | Current Version | Previous Version | Text Only | Print | Product List | Glossary On
Versions: 1 2 3 4 5 6 7 8 9 10 11 12 13 14 15 16 17 18 19 20 21 22 23 24 25 26
796
FTUS43 KLOT 120907 CCA
TAFORD
TAF COR
KORD 120907Z 1209/1312 26007KT P6SM OVC060
     FM121200 28010KT 6SM -SN BKN025 OVC040
      TEMPO 1213/1215 3SM -SN OVC020
     FM121600 30014G20KT P6SM SCT030 BKN040
     FM121900 31019G28KT P6SM SCT050
     FM130200 32017G24KT P6SM BKN035
     FM130800 31012KT P6SM SCT030=

USA.gov is the U.S. government's official web portal to all federal, state and local government web resources and services.